Time;durP1;ratioP1;P1;durP2;ratioP2;P2;SDS_P1;SDS_P2;PMS_P1;PMS_P2;Temp;Humidity;BMP_temperature;BMP_pressure;BME280_temperature;BME280_humidity;BME280_pressure;Samples;Min_cycle;Max_cycle;Signal;HPM_P1;HPM_P2
2022/01/10 00:01:53;;;;;;;13.70;12.40;;;;;;;;;;5034252;28;20454;-74
2022/01/10 00:04:22;;;;;;;17.47;14.13;;;;;;;;;;5051462;28;20442;-76
2022/01/10 00:06:49;;;;;;;12.30;11.07;;;;;;;;;;5053296;28;20466;-75
2022/01/10 00:09:16;;;;;;;12.50;11.20;;;;;;;;;;5053476;28;20486;-74
2022/01/10 00:11:43;;;;;;;17.83;12.50;;;;;;;;;;5053497;28;20450;-76
2022/01/10 00:14:10;;;;;;;15.10;11.80;;;;;;;;;;5052379;28;21045;-74
2022/01/10 00:16:37;;;;;;;12.90;11.57;;;;;;;;;;5052510;28;20467;-75
2022/01/10 00:19:04;;;;;;;13.37;12.07;;;;;;;;;;5052251;28;20836;-73
2022/01/10 00:21:33;;;;;;;13.40;12.10;;;;;;;;;;5052219;28;20497;-75
2022/01/10 00:24:00;;;;;;;12.80;11.53;;;;;;;;;;5052195;28;20451;-75
2022/01/10 00:26:27;;;;;;;15.53;12.80;;;;;;;;;;5052181;28;20866;-75
2022/01/10 00:28:54;;;;;;;14.17;12.53;;;;;;;;;;5047305;28;20505;-75
2022/01/10 00:31:21;;;;;;;13.67;12.20;;;;;;;;;;5051910;28;20922;-74
2022/01/10 00:33:48;;;;;;;15.27;12.00;;;;;;;;;;5035824;28;20445;-73
2022/01/10 00:36:15;;;;;;;13.97;11.90;;;;;;;;;;5032178;28;20448;-74
2022/01/10 00:38:43;;;;;;;13.43;12.23;;;;;;;;;;5032093;28;20485;-73
2022/01/10 00:41:11;;;;;;;14.80;11.43;;;;;;;;;;5031282;28;20440;-73
2022/01/10 00:43:45;;;;;;;16.13;12.30;;;;;;;;;;5030029;28;20443;-74
2022/01/10 00:46:12;;;;;;;12.70;11.40;;;;;;;;;;5030098;28;20460;-73
2022/01/10 00:48:39;;;;;;;13.83;11.97;;;;;;;;;;5030247;28;20462;-73
2022/01/10 00:51:06;;;;;;;15.20;12.87;;;;;;;;;;5029996;28;20860;-75
2022/01/10 00:53:33;;;;;;;16.83;11.80;;;;;;;;;;5029761;28;20944;-75
2022/01/10 00:56:01;;;;;;;12.90;11.57;;;;;;;;;;5030081;28;20512;-74
2022/01/10 00:58:28;;;;;;;13.97;12.40;;;;;;;;;;5029855;28;20451;-75
2022/01/10 01:00:55;;;;;;;15.20;11.33;;;;;;;;;;5029912;28;20719;-75
2022/01/10 01:03:22;;;;;;;14.90;13.20;;;;;;;;;;5029599;28;20448;-74
2022/01/10 01:05:49;;;;;;;16.47;13.30;;;;;;;;;;5040708;28;20452;-74
2022/01/10 01:08:16;;;;;;;16.03;12.13;;;;;;;;;;5049313;28;20888;-74
2022/01/10 01:11:14;;;;;;;13.90;12.50;;;;;;;;;;5033756;28;20470;-75
2022/01/10 01:13:52;;;;;;;16.67;13.00;;;;;;;;;;5029596;28;20464;-74
2022/01/10 01:16:31;;;;;;;13.23;11.83;;;;;;;;;;5029653;28;20895;-75
2022/01/10 01:24:26;;;;;;;13.87;11.30;;;;;;;;;;5029450;28;20451;-75
2022/01/10 01:26:54;;;;;;;11.73;10.47;;;;;;;;;;5029485;28;20465;-75
2022/01/10 01:29:24;;;;;;;12.17;10.80;;;;;;;;;;5029872;28;20475;-75
2022/01/10 01:31:51;;;;;;;11.83;10.17;;;;;;;;;;5029873;28;20563;-75
2022/01/10 01:34:18;;;;;;;12.60;11.30;;;;;;;;;;5029499;28;20471;-74
2022/01/10 01:36:49;;;;;;;15.30;11.57;;;;;;;;;;5029509;28;20522;-74
2022/01/10 01:39:21;;;;;;;12.17;11.10;;;;;;;;;;5029552;28;20457;-75
2022/01/10 01:41:48;;;;;;;12.33;11.23;;;;;;;;;;5029795;28;20571;-74
2022/01/10 01:44:15;;;;;;;12.33;10.30;;;;;;;;;;5029261;28;20443;-75
2022/01/10 01:46:44;;;;;;;11.80;9.97;;;;;;;;;;5029417;28;20765;-75
2022/01/10 01:49:12;;;;;;;11.17;10.10;;;;;;;;;;5029455;28;20477;-74
2022/01/10 01:51:39;;;;;;;11.23;10.30;;;;;;;;;;5029601;28;20465;-75
2022/01/10 01:54:07;;;;;;;11.17;10.03;;;;;;;;;;5029361;28;20501;-75
2022/01/10 01:56:35;;;;;;;14.00;11.07;;;;;;;;;;5029439;28;20522;-74
2022/01/10 01:59:02;;;;;;;11.80;10.70;;;;;;;;;;5030493;28;20526;-75
2022/01/10 02:01:29;;;;;;;13.07;11.50;;;;;;;;;;5030929;28;20803;-75
2022/01/10 02:03:57;;;;;;;13.00;11.70;;;;;;;;;;5048400;28;20443;-74
2022/01/10 02:06:24;;;;;;;11.50;10.40;;;;;;;;;;5054774;28;20470;-74
2022/01/10 02:08:51;;;;;;;15.60;10.37;;;;;;;;;;5054288;28;20450;-75
2022/01/10 02:11:18;;;;;;;11.87;10.77;;;;;;;;;;5053385;28;20507;-75
2022/01/10 02:13:45;;;;;;;13.73;12.17;;;;;;;;;;5053129;28;20439;-74
2022/01/10 02:16:17;;;;;;;17.50;11.07;;;;;;;;;;5053131;28;20862;-75
2022/01/10 02:18:44;;;;;;;13.77;12.57;;;;;;;;;;5052855;28;20493;-75
2022/01/10 02:21:14;;;;;;;14.83;11.80;;;;;;;;;;5052877;28;20446;-75
2022/01/10 02:23:42;;;;;;;15.23;13.10;;;;;;;;;;5053063;28;20446;-75
2022/01/10 02:26:09;;;;;;;13.53;12.23;;;;;;;;;;5052755;28;20525;-74
2022/01/10 02:28:36;;;;;;;13.53;12.13;;;;;;;;;;5052764;28;20995;-74
2022/01/10 02:31:03;;;;;;;12.93;11.77;;;;;;;;;;5052887;28;20744;-76
2022/01/10 02:33:31;;;;;;;13.90;12.60;;;;;;;;;;5052288;28;20449;-75
2022/01/10 02:36:06;;;;;;;12.77;11.57;;;;;;;;;;5052813;28;20453;-75
2022/01/10 02:38:35;;;;;;;15.10;13.60;;;;;;;;;;5053088;28;20430;-75
2022/01/10 02:41:03;;;;;;;13.97;11.50;;;;;;;;;;5052472;28;20457;-75
2022/01/10 02:43:30;;;;;;;13.33;12.03;;;;;;;;;;5052968;28;20484;-76
2022/01/10 02:45:57;;;;;;;13.97;12.30;;;;;;;;;;5053624;28;20447;-75
2022/01/10 02:48:24;;;;;;;14.70;13.20;;;;;;;;;;5052760;28;20504;-75
2022/01/10 02:50:52;;;;;;;14.03;12.63;;;;;;;;;;5052701;28;20486;-75
2022/01/10 02:53:19;;;;;;;14.03;12.53;;;;;;;;;;5052661;28;20447;-74
2022/01/10 02:55:47;;;;;;;14.10;12.70;;;;;;;;;;5052844;28;20525;-74
2022/01/10 02:58:14;;;;;;;16.70;12.67;;;;;;;;;;5054413;28;20882;-74
2022/01/10 03:00:41;;;;;;;13.33;12.10;;;;;;;;;;5062964;28;20454;-74
2022/01/10 03:03:08;;;;;;;14.53;12.90;;;;;;;;;;5054273;28;20446;-74
2022/01/10 03:05:35;;;;;;;15.87;13.70;;;;;;;;;;5042947;28;20502;-75
2022/01/10 03:08:03;;;;;;;14.40;13.03;;;;;;;;;;5042945;28;20471;-74
2022/01/10 03:10:31;;;;;;;14.10;12.63;;;;;;;;;;5043042;28;20474;-74
2022/01/10 03:13:00;;;;;;;15.57;13.80;;;;;;;;;;5043273;28;20501;-74
2022/01/10 03:15:28;;;;;;;15.17;13.57;;;;;;;;;;5040018;28;20452;-76
2022/01/10 03:17:55;;;;;;;14.60;12.87;;;;;;;;;;5032324;28;20831;-75
2022/01/10 03:20:23;;;;;;;15.13;12.93;;;;;;;;;;5032468;28;20443;-74
2022/01/10 03:22:50;;;;;;;15.23;12.50;;;;;;;;;;5032355;28;20786;-74
2022/01/10 03:25:17;;;;;;;16.70;14.07;;;;;;;;;;5031746;28;20451;-75
2022/01/10 03:27:44;;;;;;;19.07;13.30;;;;;;;;;;5031680;28;20920;-75
2022/01/10 03:30:15;;;;;;;14.47;12.57;;;;;;;;;;5032044;28;20476;-76
2022/01/10 03:32:42;;;;;;;13.90;12.50;;;;;;;;;;5031339;28;20454;-75
2022/01/10 03:35:10;;;;;;;17.20;13.83;;;;;;;;;;5031578;28;20451;-75
2022/01/10 03:37:37;;;;;;;15.87;14.00;;;;;;;;;;5031514;28;20531;-74
2022/01/10 03:40:04;;;;;;;17.10;13.97;;;;;;;;;;5031598;28;20882;-75
2022/01/10 03:42:31;;;;;;;16.60;13.50;;;;;;;;;;5031113;28;20444;-75
2022/01/10 03:44:58;;;;;;;19.47;13.57;;;;;;;;;;5031487;28;20447;-74
2022/01/10 03:47:27;;;;;;;15.40;13.73;;;;;;;;;;5031047;28;20488;-75
2022/01/10 03:49:54;;;;;;;16.20;14.13;;;;;;;;;;5031230;28;20847;-74
2022/01/10 03:52:22;;;;;;;15.80;13.37;;;;;;;;;;5031348;28;20502;-74
2022/01/10 03:54:49;;;;;;;14.30;12.73;;;;;;;;;;5031056;28;20451;-75
2022/01/10 03:57:16;;;;;;;13.20;11.90;;;;;;;;;;5031135;28;20929;-74
2022/01/10 03:59:44;;;;;;;14.80;12.70;;;;;;;;;;5031322;28;20683;-75
2022/01/10 04:02:11;;;;;;;15.40;13.87;;;;;;;;;;5031350;28;20459;-75
2022/01/10 04:04:39;;;;;;;16.20;12.63;;;;;;;;;;5050970;28;20450;-74
2022/01/10 04:07:07;;;;;;;13.60;12.40;;;;;;;;;;5050696;28;20459;-75
2022/01/10 04:09:34;;;;;;;13.67;12.27;;;;;;;;;;5050918;28;20447;-75
2022/01/10 04:12:01;;;;;;;12.93;11.57;;;;;;;;;;5050866;28;20446;-75
2022/01/10 04:14:28;;;;;;;12.57;10.30;;;;;;;;;;5050759;28;20665;-75
2022/01/10 04:16:55;;;;;;;11.33;9.50;;;;;;;;;;5050757;28;20470;-75
2022/01/10 04:19:22;;;;;;;9.10;8.20;;;;;;;;;;5050683;28;20455;-75
2022/01/10 04:21:51;;;;;;;10.40;9.30;;;;;;;;;;5050199;28;20458;-74
2022/01/10 04:24:18;;;;;;;9.87;8.87;;;;;;;;;;5050156;28;20450;-75
2022/01/10 04:26:45;;;;;;;10.83;9.57;;;;;;;;;;5050060;28;20536;-74
2022/01/10 04:29:12;;;;;;;10.87;8.90;;;;;;;;;;5050489;28;20451;-76
2022/01/10 04:31:39;;;;;;;13.53;8.90;;;;;;;;;;5050384;28;20876;-75
2022/01/10 04:34:06;;;;;;;9.67;8.70;;;;;;;;;;5049793;28;20442;-75
2022/01/10 04:36:33;;;;;;;11.87;8.33;;;;;;;;;;5045835;28;21183;-75
2022/01/10 04:39:01;;;;;;;8.20;7.37;;;;;;;;;;5044342;28;20510;-75
2022/01/10 04:41:28;;;;;;;9.80;8.37;;;;;;;;;;5045247;28;20848;-75
2022/01/10 04:43:55;;;;;;;10.13;7.10;;;;;;;;;;5029907;28;20451;-75
2022/01/10 04:46:22;;;;;;;8.20;7.50;;;;;;;;;;5029982;28;20902;-76
2022/01/10 04:48:49;;;;;;;9.53;8.07;;;;;;;;;;5029958;28;20458;-75
2022/01/10 04:51:17;;;;;;;8.37;7.57;;;;;;;;;;5041375;28;20478;-75
2022/01/10 04:53:45;;;;;;;10.67;9.57;;;;;;;;;;5049698;28;20451;-76
2022/01/10 04:56:14;;;;;;;8.97;8.07;;;;;;;;;;5049640;28;20848;-76
2022/01/10 04:58:42;;;;;;;10.63;8.77;;;;;;;;;;5049695;28;20435;-75
2022/01/10 05:01:09;;;;;;;9.57;8.50;;;;;;;;;;5049693;28;20867;-74
2022/01/10 05:03:36;;;;;;;10.40;7.93;;;;;;;;;;5049656;28;20454;-74
2022/01/10 05:06:03;;;;;;;13.63;8.60;;;;;;;;;;5049956;28;20451;-74
2022/01/10 05:08:30;;;;;;;11.37;9.73;;;;;;;;;;5049678;28;20492;-75
2022/01/10 05:10:58;;;;;;;10.17;9.10;;;;;;;;;;5049517;28;20474;-74
2022/01/10 05:13:26;;;;;;;12.17;9.47;;;;;;;;;;5049156;28;20447;-74
2022/01/10 05:15:54;;;;;;;11.70;9.30;;;;;;;;;;5049597;28;20845;-75
2022/01/10 05:18:21;;;;;;;13.70;9.93;;;;;;;;;;5049384;28;21068;-74
2022/01/10 05:20:49;;;;;;;14.60;10.00;;;;;;;;;;5049702;28;20491;-75
2022/01/10 05:23:16;;;;;;;14.40;11.60;;;;;;;;;;5049147;28;20450;-74
2022/01/10 05:25:44;;;;;;;12.47;11.17;;;;;;;;;;5049664;28;20453;-74
2022/01/10 05:28:12;;;;;;;11.80;9.67;;;;;;;;;;5049170;28;20975;-73
2022/01/10 05:30:42;;;;;;;14.97;11.77;;;;;;;;;;5049429;28;20475;-74
2022/01/10 05:33:09;;;;;;;15.33;11.60;;;;;;;;;;5049604;28;20492;-73
2022/01/10 05:35:36;;;;;;;16.60;11.33;;;;;;;;;;5049445;28;20453;-74
2022/01/10 05:38:04;;;;;;;15.60;11.13;;;;;;;;;;5051302;28;20466;-74
2022/01/10 05:40:31;;;;;;;15.07;11.83;;;;;;;;;;5053572;28;20859;-73
2022/01/10 05:42:58;;;;;;;15.70;12.23;;;;;;;;;;5052872;28;20442;-74
2022/01/10 05:45:25;;;;;;;17.83;12.87;;;;;;;;;;5053264;28;20443;-75
2022/01/10 05:47:53;;;;;;;19.03;12.57;;;;;;;;;;5053218;28;20524;-75
2022/01/10 05:50:32;;;;;;;20.43;12.97;;;;;;;;;;5051222;28;20495;-74
2022/01/10 05:52:59;;;;;;;17.83;12.40;;;;;;;;;;5050540;28;20489;-76
2022/01/10 05:55:26;;;;;;;17.17;12.50;;;;;;;;;;5048821;28;20819;-75
2022/01/10 05:57:54;;;;;;;19.80;12.70;;;;;;;;;;5033569;28;20473;-74
2022/01/10 06:00:21;;;;;;;20.33;12.57;;;;;;;;;;5033127;28;20835;-75
2022/01/10 06:02:48;;;;;;;21.00;13.43;;;;;;;;;;5038151;28;20449;-75
2022/01/10 06:05:16;;;;;;;15.97;13.10;;;;;;;;;;5053353;28;20449;-75
2022/01/10 06:07:44;;;;;;;16.00;11.90;;;;;;;;;;5053327;28;20459;-74
2022/01/10 06:10:11;;;;;;;19.47;12.60;;;;;;;;;;5052688;28;20894;-75
2022/01/10 06:12:38;;;;;;;17.20;13.70;;;;;;;;;;5052671;28;20451;-75
2022/01/10 06:15:06;;;;;;;21.67;14.43;;;;;;;;;;5053128;28;20507;-73
2022/01/10 06:17:33;;;;;;;17.07;12.27;;;;;;;;;;5052899;28;20469;-74
2022/01/10 06:20:00;;;;;;;19.13;12.67;;;;;;;;;;5052688;28;20450;-75
2022/01/10 06:22:29;;;;;;;17.53;12.43;;;;;;;;;;5052482;28;20438;-75
2022/01/10 06:24:56;;;;;;;16.23;12.33;;;;;;;;;;5052377;28;20512;-74
2022/01/10 06:27:23;;;;;;;17.83;14.07;;;;;;;;;;5052673;28;20527;-74
2022/01/10 06:29:50;;;;;;;18.20;14.30;;;;;;;;;;5052933;28;20505;-74
2022/01/10 06:32:17;;;;;;;21.07;13.40;;;;;;;;;;5052259;28;21011;-75
2022/01/10 06:34:44;;;;;;;27.20;19.50;;;;;;;;;;5052277;28;20454;-74
2022/01/10 06:37:11;;;;;;;23.27;14.77;;;;;;;;;;5052330;28;20528;-73
2022/01/10 06:39:40;;;;;;;39.70;29.00;;;;;;;;;;5052016;28;20944;-74
2022/01/10 06:42:07;;;;;;;23.50;15.23;;;;;;;;;;5052436;28;21012;-74
2022/01/10 06:44:34;;;;;;;17.07;14.60;;;;;;;;;;5052355;28;20503;-74
2022/01/10 06:47:01;;;;;;;23.40;15.10;;;;;;;;;;5052180;28;20479;-74
2022/01/10 06:49:28;;;;;;;20.73;15.37;;;;;;;;;;5047936;28;20458;-76
2022/01/10 06:51:55;;;;;;;30.47;14.93;;;;;;;;;;5051396;28;20984;-75
2022/01/10 06:54:22;;;;;;;26.80;15.60;;;;;;;;;;5044564;28;20447;-74
2022/01/10 06:56:51;;;;;;;24.57;15.90;;;;;;;;;;5052496;28;20463;-75
2022/01/10 06:59:18;;;;;;;23.10;16.40;;;;;;;;;;5052121;28;20492;-73
2022/01/10 07:01:45;;;;;;;22.80;16.00;;;;;;;;;;5052276;28;20438;-74
2022/01/10 07:04:12;;;;;;;25.17;16.37;;;;;;;;;;5051894;28;20446;-74
2022/01/10 07:06:41;;;;;;;27.70;16.43;;;;;;;;;;5052027;28;20466;-76
2022/01/10 07:09:08;;;;;;;23.73;16.73;;;;;;;;;;5051909;28;20529;-74
2022/01/10 07:11:35;;;;;;;29.93;16.13;;;;;;;;;;5051823;28;20481;-75
2022/01/10 07:14:03;;;;;;;21.10;15.00;;;;;;;;;;5051248;28;20446;-76
2022/01/10 07:16:31;;;;;;;22.30;16.50;;;;;;;;;;5051646;28;20462;-75
2022/01/10 07:18:58;;;;;;;22.97;15.20;;;;;;;;;;5045616;28;20455;-72
2022/01/10 07:21:25;;;;;;;20.60;15.50;;;;;;;;;;5051894;28;20867;-74
2022/01/10 07:23:52;;;;;;;22.67;16.00;;;;;;;;;;5051326;28;20496;-75
2022/01/10 07:26:19;;;;;;;23.83;16.30;;;;;;;;;;5051720;28;20500;-74
2022/01/10 07:28:46;;;;;;;26.53;15.03;;;;;;;;;;5051486;28;20446;-74
2022/01/10 07:31:14;;;;;;;23.47;16.67;;;;;;;;;;5051571;28;21030;-75
2022/01/10 07:33:41;;;;;;;21.10;15.50;;;;;;;;;;5050945;28;20443;-74
2022/01/10 07:36:08;;;;;;;26.00;16.40;;;;;;;;;;5051799;28;20858;-75
2022/01/10 07:38:36;;;;;;;22.73;15.67;;;;;;;;;;5051413;28;20501;-73
2022/01/10 07:41:03;;;;;;;20.17;14.33;;;;;;;;;;5051756;28;20487;-75
2022/01/10 07:43:30;;;;;;;20.20;15.20;;;;;;;;;;5051080;28;20453;-74
2022/01/10 07:45:58;;;;;;;18.67;14.23;;;;;;;;;;5050807;28;20902;-75
2022/01/10 07:48:27;;;;;;;18.20;14.17;;;;;;;;;;5050941;28;20461;-75
2022/01/10 07:50:54;;;;;;;24.53;15.60;;;;;;;;;;5051264;28;20835;-74
2022/01/10 07:53:21;;;;;;;25.13;15.70;;;;;;;;;;5050639;28;20450;-76
2022/01/10 07:55:48;;;;;;;21.33;14.70;;;;;;;;;;5051080;28;20453;-74
2022/01/10 07:58:16;;;;;;;24.13;15.87;;;;;;;;;;5050739;28;20500;-74
2022/01/10 08:00:43;;;;;;;21.87;16.40;;;;;;;;;;5049838;28;20446;-75
2022/01/10 08:03:10;;;;;;;23.03;16.93;;;;;;;;;;5050555;28;20861;-74
2022/01/10 08:05:39;;;;;;;25.53;18.47;;;;;;;;;;5050770;28;20450;-74
2022/01/10 08:08:06;;;;;;;23.97;18.33;;;;;;;;;;5050580;28;20477;-74
2022/01/10 08:10:33;;;;;;;28.63;19.00;;;;;;;;;;5050936;28;20447;-76
2022/01/10 08:13:00;;;;;;;26.10;19.00;;;;;;;;;;5050105;28;20540;-76
2022/01/10 08:15:27;;;;;;;25.80;19.87;;;;;;;;;;5050580;28;20443;-74
2022/01/10 08:17:54;;;;;;;24.37;19.90;;;;;;;;;;5050568;28;20469;-76
2022/01/10 08:20:21;;;;;;;26.70;20.03;;;;;;;;;;5050712;28;20511;-75
2022/01/10 08:22:49;;;;;;;26.33;19.20;;;;;;;;;;5049998;28;20844;-76
2022/01/10 08:25:16;;;;;;;31.10;21.43;;;;;;;;;;5050566;28;20497;-75
2022/01/10 08:27:44;;;;;;;28.70;20.63;;;;;;;;;;5050343;28;20516;-75
2022/01/10 08:30:11;;;;;;;32.67;20.50;;;;;;;;;;5051106;28;20454;-75
2022/01/10 08:32:38;;;;;;;33.33;21.17;;;;;;;;;;5050288;28;20489;-74
2022/01/10 08:35:06;;;;;;;34.53;21.20;;;;;;;;;;5050045;28;20727;-76
2022/01/10 08:37:34;;;;;;;31.67;21.13;;;;;;;;;;5049878;28;20519;-75
2022/01/10 08:40:02;;;;;;;25.33;20.40;;;;;;;;;;5050178;28;20454;-74
2022/01/10 08:42:29;;;;;;;29.87;21.23;;;;;;;;;;5050070;28;20492;-76
2022/01/10 08:44:56;;;;;;;28.37;20.03;;;;;;;;;;5050143;28;20455;-75
2022/01/10 08:47:23;;;;;;;31.20;21.47;;;;;;;;;;5049808;28;20480;-75
2022/01/10 08:49:50;;;;;;;31.40;20.67;;;;;;;;;;5049902;28;20531;-74
2022/01/10 08:52:17;;;;;;;23.10;19.43;;;;;;;;;;5049978;28;20479;-75
2022/01/10 08:54:45;;;;;;;24.83;19.10;;;;;;;;;;5049502;28;20928;-74
2022/01/10 08:57:13;;;;;;;27.23;19.83;;;;;;;;;;5050268;28;20524;-74
2022/01/10 08:59:40;;;;;;;29.03;19.77;;;;;;;;;;5046781;28;20452;-74
2022/01/10 09:02:08;;;;;;;25.33;18.33;;;;;;;;;;5050109;28;20948;-74
2022/01/10 09:04:36;;;;;;;26.97;18.73;;;;;;;;;;5046052;28;20442;-74
2022/01/10 09:07:03;;;;;;;23.73;18.80;;;;;;;;;;5051848;28;20990;-75
2022/01/10 09:09:30;;;;;;;29.67;20.40;;;;;;;;;;5050092;28;20449;-76
2022/01/10 09:11:57;;;;;;;28.83;19.30;;;;;;;;;;5049691;28;20540;-75
2022/01/10 09:14:26;;;;;;;26.63;18.27;;;;;;;;;;5049823;28;20505;-75
2022/01/10 09:16:53;;;;;;;26.40;18.83;;;;;;;;;;5049977;28;20469;-75
2022/01/10 09:19:20;;;;;;;26.00;18.77;;;;;;;;;;5050190;28;20512;-75
2022/01/10 09:21:47;;;;;;;27.53;18.67;;;;;;;;;;5049713;28;20458;-75
2022/01/10 09:24:14;;;;;;;29.77;18.20;;;;;;;;;;5049132;28;20889;-74
2022/01/10 09:26:41;;;;;;;26.83;18.10;;;;;;;;;;5049246;28;21085;-75
2022/01/10 09:29:09;;;;;;;33.23;18.20;;;;;;;;;;5049554;28;20914;-76
2022/01/10 09:31:37;;;;;;;26.30;16.70;;;;;;;;;;5048944;28;21055;-76
2022/01/10 09:34:04;;;;;;;25.53;18.63;;;;;;;;;;5048870;28;20934;-74
2022/01/10 09:36:34;;;;;;;30.83;19.37;;;;;;;;;;5049250;28;20477;-75
2022/01/10 09:39:02;;;;;;;24.00;17.87;;;;;;;;;;5049342;28;20930;-74
2022/01/10 09:41:29;;;;;;;24.97;18.50;;;;;;;;;;5043718;28;20482;-75
2022/01/10 09:43:57;;;;;;;21.77;17.70;;;;;;;;;;5040458;28;20459;-75
2022/01/10 09:46:25;;;;;;;25.27;17.03;;;;;;;;;;5035260;28;20867;-75
2022/01/10 09:48:54;;;;;;;23.23;18.30;;;;;;;;;;5040817;28;21014;-76
2022/01/10 09:51:22;;;;;;;22.80;18.13;;;;;;;;;;5029510;28;20442;-76
2022/01/10 09:53:49;;;;;;;30.17;18.67;;;;;;;;;;5029208;28;20454;-76
2022/01/10 09:56:16;;;;;;;31.30;19.27;;;;;;;;;;5029473;28;20531;-75
2022/01/10 09:58:44;;;;;;;22.97;16.97;;;;;;;;;;5037791;28;20532;-77
2022/01/10 10:01:14;;;;;;;29.70;18.63;;;;;;;;;;5051148;28;20444;-75
2022/01/10 10:03:44;;;;;;;25.37;17.20;;;;;;;;;;5051177;28;20478;-78
2022/01/10 10:06:12;;;;;;;22.30;15.83;;;;;;;;;;5051535;28;20428;-76
2022/01/10 10:08:40;;;;;;;18.63;15.47;;;;;;;;;;5050902;28;20992;-77
2022/01/10 10:11:07;;;;;;;20.13;14.87;;;;;;;;;;5051540;28;20525;-77
2022/01/10 10:13:43;;;;;;;22.87;16.87;;;;;;;;;;5051469;28;20578;-77
2022/01/10 10:16:13;;;;;;;22.40;15.53;;;;;;;;;;5049029;28;20470;-78
2022/01/10 10:18:40;;;;;;;20.63;15.50;;;;;;;;;;5031377;28;20522;-76
2022/01/10 10:21:13;;;;;;;22.00;16.43;;;;;;;;;;5038743;28;20478;-78
2022/01/10 10:23:46;;;;;;;20.80;16.10;;;;;;;;;;5052169;28;20450;-77
2022/01/10 10:26:13;;;;;;;20.70;16.33;;;;;;;;;;5055298;28;20503;-77
2022/01/10 10:28:40;;;;;;;20.67;16.50;;;;;;;;;;5055036;28;20451;-77
2022/01/10 10:31:07;;;;;;;24.40;16.07;;;;;;;;;;5054917;28;20799;-78
2022/01/10 10:33:34;;;;;;;29.43;18.07;;;;;;;;;;5054601;28;20475;-78
2022/01/10 10:36:03;;;;;;;22.63;16.77;;;;;;;;;;5054909;28;20454;-77
2022/01/10 10:38:32;;;;;;;25.30;17.30;;;;;;;;;;5054078;28;20859;-77
2022/01/10 10:41:01;;;;;;;23.77;15.40;;;;;;;;;;5054598;28;20442;-77
2022/01/10 10:43:30;;;;;;;17.70;13.83;;;;;;;;;;5054263;28;20551;-77
2022/01/10 10:46:00;;;;;;;24.42;13.93;;;;;;;;;;5054602;28;20452;-77
2022/01/10 10:48:28;;;;;;;15.97;14.37;;;;;;;;;;5054415;28;20215;-79
2022/01/10 10:50:58;;;;;;;19.37;13.80;;;;;;;;;;5055023;28;20459;-80
2022/01/10 10:53:28;;;;;;;20.33;14.80;;;;;;;;;;5054255;28;20462;-77
2022/01/10 10:55:59;;;;;;;22.10;14.70;;;;;;;;;;5054629;28;20453;-79
2022/01/10 10:58:27;;;;;;;18.30;13.27;;;;;;;;;;5055370;28;20459;-77
2022/01/10 11:00:55;;;;;;;19.17;14.10;;;;;;;;;;5055293;28;20257;-78
2022/01/10 11:03:22;;;;;;;16.73;13.73;;;;;;;;;;5054932;28;20476;-78
2022/01/10 11:05:49;;;;;;;17.63;12.53;;;;;;;;;;5055726;28;20446;-77
2022/01/10 11:08:17;;;;;;;21.97;14.57;;;;;;;;;;5054092;28;20486;-78
2022/01/10 11:10:45;;;;;;;15.37;13.50;;;;;;;;;;5055229;28;20460;-77
2022/01/10 11:13:14;;;;;;;17.10;14.67;;;;;;;;;;5054094;28;20477;-79
2022/01/10 11:15:43;;;;;;;15.93;13.73;;;;;;;;;;5053975;28;20473;-77
2022/01/10 11:18:10;;;;;;;20.57;13.77;;;;;;;;;;5035630;28;20470;-77
2022/01/10 11:20:42;;;;;;;18.37;14.90;;;;;;;;;;5034709;28;20953;-77
2022/01/10 11:23:10;;;;;;;20.10;13.40;;;;;;;;;;5033784;28;20455;-76
2022/01/10 11:25:39;;;;;;;16.80;13.23;;;;;;;;;;5035573;28;20453;-79
2022/01/10 11:28:08;;;;;;;14.00;11.63;;;;;;;;;;5035114;28;20465;-79
2022/01/10 11:30:38;;;;;;;16.20;12.43;;;;;;;;;;5034607;28;20856;-78
2022/01/10 11:33:07;;;;;;;22.03;13.70;;;;;;;;;;5034837;28;20815;-78
2022/01/10 11:35:35;;;;;;;15.80;12.53;;;;;;;;;;5033282;28;20474;-77
2022/01/10 11:38:16;;;;;;;14.90;13.23;;;;;;;;;;5034109;28;20467;-80
2022/01/10 11:40:43;;;;;;;17.67;13.43;;;;;;;;;;5033922;28;20926;-77
2022/01/10 11:43:27;;;;;;;13.90;12.50;;;;;;;;;;5046937;28;20525;-78
2022/01/10 11:46:06;;;;;;;13.83;12.30;;;;;;;;;;5053666;28;20525;-77
2022/01/10 11:48:42;;;;;;;16.07;12.93;;;;;;;;;;5053889;28;20460;-77
2022/01/10 11:51:13;;;;;;;14.60;12.17;;;;;;;;;;5053520;28;20826;-77
2022/01/10 11:53:43;;;;;;;18.47;12.63;;;;;;;;;;5052677;28;20465;-78
2022/01/10 11:56:20;;;;;;;18.93;11.67;;;;;;;;;;5052552;28;20445;-75
2022/01/10 11:59:02;;;;;;;12.73;11.30;;;;;;;;;;5053277;28;20457;-76
2022/01/10 12:01:34;;;;;;;15.07;11.30;;;;;;;;;;5053073;28;20441;-78
2022/01/10 12:04:01;;;;;;;13.20;11.47;;;;;;;;;;5052821;28;20465;-76
2022/01/10 12:06:30;;;;;;;13.70;11.83;;;;;;;;;;5053096;28;20537;-77
2022/01/10 12:08:57;;;;;;;12.80;11.33;;;;;;;;;;5053261;28;20453;-75
2022/01/10 12:11:25;;;;;;;15.60;11.97;;;;;;;;;;5053515;28;20442;-78
2022/01/10 12:13:53;;;;;;;17.10;13.00;;;;;;;;;;5052936;28;20480;-77
2022/01/10 12:16:20;;;;;;;22.10;12.40;;;;;;;;;;5053093;28;20520;-78
2022/01/10 12:18:49;;;;;;;15.60;12.40;;;;;;;;;;5053071;28;20451;-77
2022/01/10 12:21:16;;;;;;;14.67;12.07;;;;;;;;;;5053159;28;20438;-78
2022/01/10 12:23:44;;;;;;;13.97;11.87;;;;;;;;;;5052621;28;20476;-79
2022/01/10 12:26:11;;;;;;;17.63;12.60;;;;;;;;;;5053025;28;20537;-77
2022/01/10 12:28:38;;;;;;;18.00;12.67;;;;;;;;;;5052564;28;20561;-77
2022/01/10 12:31:06;;;;;;;14.73;11.60;;;;;;;;;;5052838;28;20453;-77
2022/01/10 12:33:33;;;;;;;15.20;12.93;;;;;;;;;;5052177;28;20481;-79
2022/01/10 12:36:02;;;;;;;15.13;12.53;;;;;;;;;;5052632;28;20438;-77
2022/01/10 12:38:29;;;;;;;15.30;13.63;;;;;;;;;;5052455;28;20518;-77
2022/01/10 12:40:56;;;;;;;20.13;15.70;;;;;;;;;;5051838;28;20904;-77
2022/01/10 12:43:23;;;;;;;17.40;14.70;;;;;;;;;;5050683;28;20792;-77
2022/01/10 12:45:51;;;;;;;17.70;14.67;;;;;;;;;;5051335;28;20503;-79
2022/01/10 12:48:18;;;;;;;21.80;16.20;;;;;;;;;;5051695;28;20570;-78
2022/01/10 12:50:48;;;;;;;23.23;15.40;;;;;;;;;;5051902;28;20494;-76
2022/01/10 12:53:17;;;;;;;17.87;15.23;;;;;;;;;;5051506;28;20477;-76
2022/01/10 12:55:44;;;;;;;20.83;16.30;;;;;;;;;;5052111;28;20449;-76
2022/01/10 12:58:11;;;;;;;24.40;17.10;;;;;;;;;;5051988;28;20477;-76
2022/01/10 13:00:38;;;;;;;22.00;15.97;;;;;;;;;;5051982;28;20449;-77
2022/01/10 13:03:06;;;;;;;22.07;15.30;;;;;;;;;;5051661;28;20465;-77
2022/01/10 13:05:33;;;;;;;27.60;16.23;;;;;;;;;;5052228;28;20442;-77
2022/01/10 13:08:01;;;;;;;21.43;16.17;;;;;;;;;;5051485;28;20498;-77
2022/01/10 13:10:33;;;;;;;23.47;17.20;;;;;;;;;;5051038;28;20446;-77
2022/01/10 13:13:01;;;;;;;21.03;15.60;;;;;;;;;;5051582;28;21042;-77
2022/01/10 13:15:32;;;;;;;23.00;16.13;;;;;;;;;;5051831;28;20450;-79
2022/01/10 13:18:00;;;;;;;21.10;16.47;;;;;;;;;;5052038;28;20475;-76
2022/01/10 13:20:28;;;;;;;26.70;16.10;;;;;;;;;;5052064;28;20449;-77
2022/01/10 13:23:01;;;;;;;20.20;16.33;;;;;;;;;;5051540;28;20949;-77
2022/01/10 13:25:28;;;;;;;19.67;16.83;;;;;;;;;;5054445;28;20446;-75
2022/01/10 13:28:02;;;;;;;20.57;15.97;;;;;;;;;;5052042;28;20478;-78
2022/01/10 13:30:29;;;;;;;26.30;16.20;;;;;;;;;;5051729;28;20468;-79
2022/01/10 13:32:56;;;;;;;19.67;15.30;;;;;;;;;;5051812;28;20473;-77
2022/01/10 13:35:24;;;;;;;20.60;15.40;;;;;;;;;;5051318;28;20434;-77
2022/01/10 13:37:57;;;;;;;21.37;14.73;;;;;;;;;;5051434;28;20544;-79
2022/01/10 13:40:25;;;;;;;22.87;15.20;;;;;;;;;;5051572;28;20446;-76
2022/01/10 13:43:03;;;;;;;23.60;15.30;;;;;;;;;;5051257;28;20445;-77
2022/01/10 13:45:43;;;;;;;17.07;14.50;;;;;;;;;;5051458;28;20450;-77
2022/01/10 13:48:16;;;;;;;22.43;16.10;;;;;;;;;;5051173;28;20519;-76
2022/01/10 13:50:45;;;;;;;17.73;14.20;;;;;;;;;;5051855;28;20533;-77
2022/01/10 13:53:13;;;;;;;17.70;14.13;;;;;;;;;;5050998;28;20477;-76
2022/01/10 13:55:43;;;;;;;22.23;14.50;;;;;;;;;;5051477;28;20442;-77
2022/01/10 13:58:23;;;;;;;20.83;14.30;;;;;;;;;;5051869;28;20557;-77
2022/01/10 14:00:55;;;;;;;18.30;13.07;;;;;;;;;;5055281;28;20846;-76
2022/01/10 14:03:22;;;;;;;17.13;14.03;;;;;;;;;;5054929;28;20434;-77
2022/01/10 14:06:04;;;;;;;21.83;14.60;;;;;;;;;;5055214;28;20908;-76
2022/01/10 14:08:32;;;;;;;20.70;14.27;;;;;;;;;;5055132;28;20434;-78
2022/01/10 14:11:01;;;;;;;21.70;15.30;;;;;;;;;;5055295;28;20445;-77
2022/01/10 14:13:28;;;;;;;19.93;14.20;;;;;;;;;;5054528;28;20767;-77
2022/01/10 14:15:56;;;;;;;18.10;14.17;;;;;;;;;;5055027;28;20453;-76
2022/01/10 14:18:24;;;;;;;19.77;15.10;;;;;;;;;;5054936;28;20887;-76
2022/01/10 14:20:51;;;;;;;31.70;21.60;;;;;;;;;;5054806;28;20952;-77
2022/01/10 14:23:19;;;;;;;23.00;16.20;;;;;;;;;;5054514;28;20848;-78
2022/01/10 14:25:46;;;;;;;18.50;14.40;;;;;;;;;;5054659;28;20448;-77
2022/01/10 14:28:13;;;;;;;20.87;14.83;;;;;;;;;;5054446;28;20473;-76
2022/01/10 14:30:40;;;;;;;24.00;15.10;;;;;;;;;;5054497;28;20445;-76